Foxworth, Mississippi
Current Conditions -  °F | °C
As of 8:15 AM on Monday 26 Jan 2015 (Local Time) from KPIB Reporting Station
Overcast Overcast  
Wind Chill: 41°   Ceiling: 3100
Heat Index: 46°   Visibility: 10mi
Dew Point: 34°   Wind: 13mph
Humidity: 62%   Direction: 320°NW
Pressure: 30.08"   Gusts: 17mph
Location:  31.24°N, 89.87°W
Report Text: KPIB 261415Z AUTO 32011G15KT 10SM OVC031 08/01 A3008 RMK AO1
Loading
Personal Weather Stations






























Interactive Weather Map New forecast layout! Learn more

10-Day Weather Forecast

Advertisements
Track Severe Weather on mobile